Time;durP1;ratioP1;P1;durP2;ratioP2;P2;SDS_P1;SDS_P2;PMS_P1;PMS_P2;Temp;Humidity;BMP_temperature;BMP_pressure;BME280_temperature;BME280_humidity;BME280_pressure;Samples;Min_cycle;Max_cycle;Signal;HPM_P1;HPM_P2
2022/10/06 00:01:18;;;;;;;8.40;1.70;;;;;;;;;;5008165;28;20476;-65
2022/10/06 00:03:46;;;;;;;5.88;1.55;;;;;;;;;;5008594;28;20029;-65
2022/10/06 00:06:14;;;;;;;8.65;1.70;;;;;;;;;;5009870;28;20795;-65
2022/10/06 00:08:41;;;;;;;7.95;1.60;;;;;;;;;;5006503;28;20041;-65
2022/10/06 00:11:09;;;;;;;8.80;1.80;;;;;;;;;;5010244;28;20072;-66
2022/10/06 00:13:37;;;;;;;9.18;1.95;;;;;;;;;;5006077;28;20033;-66
2022/10/06 00:16:08;;;;;;;7.85;1.85;;;;;;;;;;5009743;28;20064;-66
2022/10/06 00:18:36;;;;;;;7.10;1.90;;;;;;;;;;4988526;28;20869;-65
2022/10/06 00:21:03;;;;;;;8.38;1.65;;;;;;;;;;5009652;28;20506;-66
2022/10/06 00:23:31;;;;;;;9.05;1.50;;;;;;;;;;4988435;28;20037;-65
2022/10/06 00:25:58;;;;;;;6.32;1.80;;;;;;;;;;4990568;28;20045;-66
2022/10/06 00:28:25;;;;;;;9.48;1.70;;;;;;;;;;5006264;28;20040;-66
2022/10/06 00:30:55;;;;;;;6.43;1.58;;;;;;;;;;4990884;28;20056;-65
2022/10/06 00:33:22;;;;;;;7.63;1.50;;;;;;;;;;5002534;28;20057;-65
2022/10/06 00:35:55;;;;;;;7.18;1.50;;;;;;;;;;5010097;28;20025;-66
2022/10/06 00:38:23;;;;;;;8.95;1.60;;;;;;;;;;5005622;28;20036;-65
2022/10/06 00:40:51;;;;;;;8.93;1.63;;;;;;;;;;5008143;28;20026;-65
2022/10/06 00:43:37;;;;;;;5.50;1.23;;;;;;;;;;5008095;28;20037;-65
2022/10/06 00:46:03;;;;;;;7.05;1.30;;;;;;;;;;5006837;28;20030;-66
2022/10/06 00:48:30;;;;;;;5.05;1.30;;;;;;;;;;4986979;28;20238;-66
2022/10/06 00:50:57;;;;;;;5.90;1.40;;;;;;;;;;5010678;28;20029;-65
2022/10/06 00:53:26;;;;;;;6.65;1.55;;;;;;;;;;5006290;28;20211;-66
2022/10/06 00:55:53;;;;;;;7.47;1.50;;;;;;;;;;5008055;28;20053;-65
2022/10/06 00:58:19;;;;;;;5.60;1.33;;;;;;;;;;4988059;28;20388;-65
2022/10/06 01:00:47;;;;;;;6.32;1.33;;;;;;;;;;5008541;28;20493;-65
2022/10/06 01:03:18;;;;;;;6.63;1.40;;;;;;;;;;5008908;28;20122;-65
2022/10/06 01:05:48;;;;;;;6.72;1.50;;;;;;;;;;5008364;28;20022;-65
2022/10/06 01:08:14;;;;;;;5.68;1.27;;;;;;;;;;5009751;28;20034;-65
2022/10/06 01:10:40;;;;;;;7.35;1.73;;;;;;;;;;5005350;28;20037;-65
2022/10/06 01:13:09;;;;;;;6.60;1.25;;;;;;;;;;5008954;28;20037;-65
2022/10/06 01:15:36;;;;;;;6.82;1.17;;;;;;;;;;5005380;28;20041;-65
2022/10/06 01:18:21;;;;;;;7.85;1.40;;;;;;;;;;5008598;28;20116;-65
2022/10/06 01:21:06;;;;;;;6.22;1.45;;;;;;;;;;4990510;28;20092;-65
2022/10/06 01:23:33;;;;;;;7.22;1.50;;;;;;;;;;5005357;28;20663;-65
2022/10/06 01:26:04;;;;;;;5.93;1.50;;;;;;;;;;5005709;28;20033;-66
2022/10/06 01:28:31;;;;;;;6.97;1.40;;;;;;;;;;5003916;28;20037;-66
2022/10/06 01:30:59;;;;;;;7.10;1.63;;;;;;;;;;5009025;28;20026;-65
2022/10/06 01:33:25;;;;;;;5.70;1.35;;;;;;;;;;4989893;28;20044;-65
2022/10/06 01:35:52;;;;;;;6.63;1.42;;;;;;;;;;5009117;28;20018;-65
2022/10/06 01:38:19;;;;;;;7.10;1.42;;;;;;;;;;5004761;28;20029;-65
2022/10/06 01:40:45;;;;;;;6.07;1.20;;;;;;;;;;5009112;28;20547;-65
2022/10/06 01:43:12;;;;;;;5.38;1.30;;;;;;;;;;4991170;28;20100;-65
2022/10/06 01:45:38;;;;;;;5.85;1.48;;;;;;;;;;4988167;28;20037;-65
2022/10/06 01:48:06;;;;;;;6.30;1.38;;;;;;;;;;5006543;28;20167;-65
2022/10/06 01:50:33;;;;;;;5.43;1.30;;;;;;;;;;5005252;28;20044;-65
2022/10/06 01:53:01;;;;;;;7.53;1.40;;;;;;;;;;5007840;28;20037;-65
2022/10/06 01:55:28;;;;;;;7.55;1.50;;;;;;;;;;5003687;28;20022;-65
2022/10/06 01:57:56;;;;;;;6.18;1.20;;;;;;;;;;5007670;28;20542;-65
2022/10/06 02:00:23;;;;;;;5.65;1.13;;;;;;;;;;5002220;28;20032;-64
2022/10/06 02:02:51;;;;;;;5.93;1.25;;;;;;;;;;4990634;28;20065;-64
2022/10/06 02:05:18;;;;;;;5.82;1.17;;;;;;;;;;5007056;28;20025;-64
2022/10/06 02:07:44;;;;;;;6.50;1.30;;;;;;;;;;5012574;28;20443;-65
2022/10/06 02:10:12;;;;;;;9.60;1.17;;;;;;;;;;5006816;28;20332;-66
2022/10/06 02:12:39;;;;;;;5.00;1.02;;;;;;;;;;4984011;28;20486;-65
2022/10/06 02:15:06;;;;;;;7.32;1.25;;;;;;;;;;5008720;28;20033;-65
2022/10/06 02:17:33;;;;;;;7.60;1.40;;;;;;;;;;5004255;28;20157;-65
2022/10/06 02:20:01;;;;;;;6.32;1.20;;;;;;;;;;4993720;28;20609;-65
2022/10/06 02:22:28;;;;;;;6.32;1.17;;;;;;;;;;5010471;28;20069;-65
2022/10/06 02:24:56;;;;;;;7.30;1.40;;;;;;;;;;4994285;28;20025;-65
2022/10/06 02:27:24;;;;;;;6.85;1.25;;;;;;;;;;5006870;28;20048;-65
2022/10/06 02:29:51;;;;;;;6.65;1.38;;;;;;;;;;5008246;28;20263;-65
2022/10/06 02:32:19;;;;;;;6.03;1.40;;;;;;;;;;5008322;28;20052;-65
2022/10/06 02:34:46;;;;;;;5.78;1.42;;;;;;;;;;5008299;28;20129;-65
2022/10/06 02:37:14;;;;;;;6.57;1.52;;;;;;;;;;5006432;28;20079;-65
2022/10/06 02:39:42;;;;;;;6.35;1.45;;;;;;;;;;5004079;28;20018;-65
2022/10/06 02:42:10;;;;;;;5.82;1.33;;;;;;;;;;5008112;28;20057;-65
2022/10/06 02:44:37;;;;;;;5.70;1.20;;;;;;;;;;5005198;28;20467;-66
2022/10/06 02:47:03;;;;;;;5.70;1.30;;;;;;;;;;5001703;28;20655;-65
2022/10/06 02:49:30;;;;;;;;;;;;;;;;;;5000593;28;20026;-65
2022/10/06 02:51:56;;;;;;;8.80;1.30;;;;;;;;;;5008037;28;19961;-65
2022/10/06 02:54:22;;;;;;;;;;;;;;;;;;5000605;28;20032;-65
2022/10/06 02:56:49;;;;;;;5.07;0.88;;;;;;;;;;5007304;28;20642;-67
2022/10/06 02:59:15;;;;;;;3.88;0.98;;;;;;;;;;5005495;28;20587;-65
2022/10/06 03:01:41;;;;;;;5.32;1.10;;;;;;;;;;5007235;28;20148;-66
2022/10/06 03:04:07;;;;;;;;;;;;;;;;;;5003472;28;20365;-65
2022/10/06 03:06:33;;;;;;;8.00;1.15;;;;;;;;;;5000066;28;19967;-65
2022/10/06 03:08:59;;;;;;;;;;;;;;;;;;5005098;28;20036;-66
2022/10/06 03:11:26;;;;;;;5.78;1.13;;;;;;;;;;5005851;28;19913;-65
2022/10/06 03:13:59;;;;;;;6.50;1.20;;;;;;;;;;5004383;28;20399;-65
2022/10/06 03:16:25;;;;;;;8.68;1.38;;;;;;;;;;5006151;28;20025;-65
2022/10/06 03:18:52;;;;;;;8.18;1.55;;;;;;;;;;4989534;28;20029;-65
2022/10/06 03:21:19;;;;;;;8.93;1.38;;;;;;;;;;5002873;28;20069;-65
2022/10/06 03:23:46;;;;;;;7.03;1.40;;;;;;;;;;5009343;28;20037;-65
2022/10/06 03:26:16;;;;;;;5.97;1.30;;;;;;;;;;4992124;28;20100;-65
2022/10/06 03:28:43;;;;;;;8.60;1.48;;;;;;;;;;5011910;28;20566;-65
2022/10/06 03:31:09;;;;;;;4.85;1.30;;;;;;;;;;5011138;28;20127;-65
2022/10/06 03:33:36;;;;;;;5.63;1.48;;;;;;;;;;5009494;28;20540;-65
2022/10/06 03:36:03;;;;;;;6.15;1.77;;;;;;;;;;5010741;28;20108;-65
2022/10/06 03:38:30;;;;;;;8.38;1.60;;;;;;;;;;5010642;28;20056;-65
2022/10/06 03:41:10;;;;;;;9.30;1.67;;;;;;;;;;5013791;28;20049;-65
2022/10/06 03:43:37;;;;;;;7.85;1.48;;;;;;;;;;5008395;28;20128;-65
2022/10/06 03:46:03;;;;;;;4.45;1.10;;;;;;;;;;5018850;28;20037;-65
2022/10/06 03:48:32;;;;;;;6.07;1.27;;;;;;;;;;5010086;28;20084;-64
2022/10/06 03:51:01;;;;;;;8.38;1.40;;;;;;;;;;5008075;28;20036;-65
2022/10/06 03:53:29;;;;;;;7.93;1.40;;;;;;;;;;5012510;28;20379;-65
2022/10/06 03:56:10;;;;;;;9.60;1.50;;;;;;;;;;5012904;28;21341;-64
2022/10/06 03:58:38;;;;;;;6.00;1.35;;;;;;;;;;5007862;28;20041;-64
2022/10/06 04:01:10;;;;;;;7.13;1.42;;;;;;;;;;5015747;28;20498;-65
2022/10/06 04:03:39;;;;;;;6.47;1.42;;;;;;;;;;5013461;28;20060;-64
2022/10/06 04:06:06;;;;;;;6.85;1.50;;;;;;;;;;5013568;28;20037;-64
2022/10/06 04:08:34;;;;;;;7.22;1.58;;;;;;;;;;5010648;28;20037;-65
2022/10/06 04:11:22;;;;;;;7.22;1.40;;;;;;;;;;5013610;28;20429;-65
2022/10/06 04:13:55;;;;;;;5.32;1.30;;;;;;;;;;5016320;28;20034;-65
2022/10/06 04:16:28;;;;;;;10.38;1.60;;;;;;;;;;5011152;28;20063;-65
2022/10/06 04:18:55;;;;;;;4.70;1.40;;;;;;;;;;5012050;28;20465;-65
2022/10/06 04:21:24;;;;;;;7.20;1.58;;;;;;;;;;5004419;28;20056;-65
2022/10/06 04:24:00;;;;;;;5.32;1.35;;;;;;;;;;4993629;28;20333;-65
2022/10/06 04:26:29;;;;;;;;;;;;;;;;;;5002886;28;20083;-65
2022/10/06 04:28:57;;;;;;;5.30;1.02;;;;;;;;;;5008845;28;19983;-65
2022/10/06 04:31:28;;;;;;;6.32;1.60;;;;;;;;;;5008539;28;20480;-65
2022/10/06 04:33:59;;;;;;;5.18;1.38;;;;;;;;;;5008604;28;20033;-65
2022/10/06 04:36:31;;;;;;;7.63;1.33;;;;;;;;;;5005899;28;20033;-64
2022/10/06 04:38:58;;;;;;;4.75;1.33;;;;;;;;;;5013218;28;20034;-66
2022/10/06 04:41:27;;;;;;;8.32;1.92;;;;;;;;;;5010494;28;20117;-65
2022/10/06 04:43:57;;;;;;;6.38;2.25;;;;;;;;;;4996410;28;20064;-64
2022/10/06 04:46:24;;;;;;;7.78;1.40;;;;;;;;;;5010301;28;20037;-65
2022/10/06 04:48:56;;;;;;;4.90;1.40;;;;;;;;;;5011687;28;20035;-65
2022/10/06 04:51:23;;;;;;;4.68;1.33;;;;;;;;;;5006463;28;20143;-65
2022/10/06 04:53:49;;;;;;;4.22;1.30;;;;;;;;;;4995283;28;20048;-65
2022/10/06 04:56:22;;;;;;;6.65;1.50;;;;;;;;;;5011768;28;20044;-65
2022/10/06 04:58:49;;;;;;;6.93;1.58;;;;;;;;;;5012052;28;20025;-65
2022/10/06 05:01:16;;;;;;;6.00;1.63;;;;;;;;;;5011590;28;20033;-65
2022/10/06 05:03:42;;;;;;;;;;;;;;;;;;5009592;28;20165;-65
2022/10/06 05:06:28;;;;;;;8.52;1.70;;;;;;;;;;5014444;28;20367;-66
2022/10/06 05:08:55;;;;;;;7.50;1.55;;;;;;;;;;4992129;28;20059;-66
2022/10/06 05:11:22;;;;;;;5.82;1.50;;;;;;;;;;5005189;28;20108;-65
2022/10/06 05:13:49;;;;;;;7.35;1.80;;;;;;;;;;4991749;28;20029;-66
2022/10/06 05:16:16;;;;;;;7.03;1.38;;;;;;;;;;5011320;28;20541;-66
2022/10/06 05:18:44;;;;;;;9.05;1.92;;;;;;;;;;5012862;28;20500;-66
2022/10/06 05:21:14;;;;;;;8.13;1.30;;;;;;;;;;5014349;28;20227;-66
2022/10/06 05:23:41;;;;;;;7.38;1.50;;;;;;;;;;5007190;28;20400;-66
2022/10/06 05:26:08;;;;;;;8.65;1.70;;;;;;;;;;5013824;28;20113;-65
2022/10/06 05:28:34;;;;;;;4.60;1.10;;;;;;;;;;5001898;28;20455;-66
2022/10/06 05:31:20;;;;;;;9.07;1.70;;;;;;;;;;5013994;28;20033;-66
2022/10/06 05:33:46;;;;;;;6.73;1.70;;;;;;;;;;5011780;28;20134;-66
2022/10/06 05:36:17;;;;;;;6.90;1.55;;;;;;;;;;4990833;28;20263;-66
2022/10/06 05:38:43;;;;;;;6.10;1.38;;;;;;;;;;5007651;28;20660;-66
2022/10/06 05:41:14;;;;;;;9.48;2.38;;;;;;;;;;5006352;28;20036;-65
2022/10/06 05:43:40;;;;;;;9.93;2.00;;;;;;;;;;5002005;28;20033;-65
2022/10/06 05:46:16;;;;;;;9.23;1.70;;;;;;;;;;5006358;28;20497;-65
2022/10/06 05:48:48;;;;;;;7.03;1.93;;;;;;;;;;5006322;28;20040;-65
2022/10/06 05:51:15;;;;;;;6.55;1.70;;;;;;;;;;5010376;28;20303;-66
2022/10/06 05:53:44;;;;;;;6.93;1.90;;;;;;;;;;5006253;28;20037;-66
2022/10/06 05:56:24;;;;;;;6.35;1.70;;;;;;;;;;5017453;28;20035;-66
2022/10/06 05:58:52;;;;;;;8.75;2.10;;;;;;;;;;5011061;28;20484;-66
2022/10/06 06:01:21;;;;;;;7.05;1.60;;;;;;;;;;5007278;28;20511;-65
2022/10/06 06:03:50;;;;;;;8.20;1.65;;;;;;;;;;5008152;28;20375;-66
2022/10/06 06:06:21;;;;;;;7.03;1.92;;;;;;;;;;5007775;28;20399;-65
2022/10/06 06:08:56;;;;;;;7.10;2.00;;;;;;;;;;5010113;28;20038;-66
2022/10/06 06:11:26;;;;;;;8.98;1.85;;;;;;;;;;5006236;28;20463;-65
2022/10/06 06:13:57;;;;;;;6.40;1.65;;;;;;;;;;5006398;28;20041;-66
2022/10/06 06:16:25;;;;;;;8.20;1.92;;;;;;;;;;5009030;28;20032;-66
2022/10/06 06:18:51;;;;;;;7.13;1.92;;;;;;;;;;5009451;28;20025;-66
2022/10/06 06:21:18;;;;;;;;;;;;;;;;;;5010837;28;20037;-66
2022/10/06 06:23:46;;;;;;;6.55;1.80;;;;;;;;;;5002708;28;20094;-66
2022/10/06 06:26:24;;;;;;;8.30;1.83;;;;;;;;;;5007416;28;20208;-66
2022/10/06 06:28:53;;;;;;;8.60;2.00;;;;;;;;;;5008266;28;20056;-66
2022/10/06 06:31:28;;;;;;;8.15;1.80;;;;;;;;;;5002369;28;20098;-66
2022/10/06 06:33:56;;;;;;;6.47;1.30;;;;;;;;;;5006875;28;20121;-66
2022/10/06 06:36:26;;;;;;;8.52;1.70;;;;;;;;;;5008159;28;20167;-66
2022/10/06 06:38:55;;;;;;;7.43;1.52;;;;;;;;;;4992281;28;20032;-66
2022/10/06 06:41:24;;;;;;;7.32;1.65;;;;;;;;;;5010383;28;20075;-65
2022/10/06 06:43:54;;;;;;;7.57;1.70;;;;;;;;;;5009781;28;20048;-66
2022/10/06 06:46:23;;;;;;;5.30;1.35;;;;;;;;;;5006077;28;20123;-66
2022/10/06 06:48:53;;;;;;;5.65;1.30;;;;;;;;;;5008855;28;20108;-66
2022/10/06 06:51:21;;;;;;;6.60;1.40;;;;;;;;;;4999070;28;20070;-66
2022/10/06 06:53:48;;;;;;;9.98;1.45;;;;;;;;;;5010810;28;20057;-66
2022/10/06 06:56:16;;;;;;;5.65;1.40;;;;;;;;;;5009755;28;20227;-65
2022/10/06 06:58:49;;;;;;;6.55;1.42;;;;;;;;;;4990616;28;20110;-65
2022/10/06 07:01:16;;;;;;;4.47;1.15;;;;;;;;;;5006903;28;20100;-66
2022/10/06 07:03:44;;;;;;;6.68;1.25;;;;;;;;;;5007923;28;20845;-66
2022/10/06 07:06:11;;;;;;;7.65;1.38;;;;;;;;;;5012762;28;20195;-66
2022/10/06 07:08:38;;;;;;;8.63;1.50;;;;;;;;;;5009403;28;20712;-66
2022/10/06 07:11:24;;;;;;;9.18;1.70;;;;;;;;;;5016543;28;20115;-65
2022/10/06 07:13:57;;;;;;;6.53;1.80;;;;;;;;;;5007596;28;20431;-67
2022/10/06 07:25:07;;;;;;;11.02;2.00;;;;;;;;;;5011477;28;20204;-65
2022/10/06 07:27:35;;;;;;;8.50;1.98;;;;;;;;;;4991467;28;20022;-65
2022/10/06 07:30:01;;;;;;;6.88;1.80;;;;;;;;;;5017967;28;20037;-65
2022/10/06 07:32:30;;;;;;;8.82;2.28;;;;;;;;;;5015858;28;20332;-65
2022/10/06 07:34:59;;;;;;;8.07;1.90;;;;;;;;;;5012031;28;20052;-65
2022/10/06 07:37:27;;;;;;;8.68;2.10;;;;;;;;;;4997087;28;20647;-65
2022/10/06 07:39:53;;;;;;;11.02;2.13;;;;;;;;;;5018265;28;20029;-66
2022/10/06 07:42:20;;;;;;;8.30;2.03;;;;;;;;;;5012300;28;20380;-66
2022/10/06 07:45:36;;;;;;;10.95;1.95;;;;;;;;;;5016405;28;20966;-65
2022/10/06 07:47:36;;;;;;;9.23;2.30;;;;;;;;;;5009948;28;20044;-65
2022/10/06 07:50:07;;;;;;;8.52;2.42;;;;;;;;;;5013573;28;20033;-66
2022/10/06 07:52:38;;;;;;;7.82;1.95;;;;;;;;;;5013876;28;20032;-66
2022/10/06 07:55:05;;;;;;;7.72;1.63;;;;;;;;;;5010255;28;20396;-66
2022/10/06 07:57:34;;;;;;;8.32;2.10;;;;;;;;;;5006292;28;20025;-65
2022/10/06 08:00:04;;;;;;;9.65;1.90;;;;;;;;;;5011340;28;20037;-65
2022/10/06 08:02:31;;;;;;;7.28;1.45;;;;;;;;;;5008258;28;20032;-65
2022/10/06 08:04:59;;;;;;;5.80;1.33;;;;;;;;;;5010940;28;20441;-65
2022/10/06 08:07:26;;;;;;;8.15;1.50;;;;;;;;;;5005596;28;20418;-65
2022/10/06 08:09:54;;;;;;;8.20;1.55;;;;;;;;;;5011698;28;20029;-65
2022/10/06 08:12:36;;;;;;;5.47;1.20;;;;;;;;;;5009513;28;20396;-65
2022/10/06 08:15:05;;;;;;;6.90;1.55;;;;;;;;;;5010465;28;20064;-66
2022/10/06 08:17:33;;;;;;;7.72;1.38;;;;;;;;;;5011481;28;20376;-65
2022/10/06 08:20:00;;;;;;;6.35;1.25;;;;;;;;;;4986214;28;20061;-65
2022/10/06 08:22:28;;;;;;;7.55;1.23;;;;;;;;;;4994565;28;20033;-64
2022/10/06 08:24:56;;;;;;;6.78;1.20;;;;;;;;;;5001544;28;20030;-64
2022/10/06 08:27:27;;;;;;;11.60;1.45;;;;;;;;;;4995134;28;20025;-66
2022/10/06 08:29:57;;;;;;;8.35;2.08;;;;;;;;;;4999028;28;20053;-66
2022/10/06 08:32:24;;;;;;;7.55;1.40;;;;;;;;;;4993014;28;20492;-65
2022/10/06 08:34:51;;;;;;;7.72;1.55;;;;;;;;;;4998912;28;20539;-66
2022/10/06 08:37:22;;;;;;;9.35;1.65;;;;;;;;;;4989987;28;20468;-64
2022/10/06 08:39:50;;;;;;;7.95;1.48;;;;;;;;;;4988752;28;20033;-65
2022/10/06 08:42:23;;;;;;;6.15;1.45;;;;;;;;;;4992478;28;20064;-65
2022/10/06 08:44:55;;;;;;;13.18;2.65;;;;;;;;;;4989909;28;20117;-65
2022/10/06 08:47:22;;;;;;;10.82;2.17;;;;;;;;;;4974651;28;20120;-65
2022/10/06 08:49:49;;;;;;;10.25;1.90;;;;;;;;;;4994815;28;20038;-65
2022/10/06 08:52:34;;;;;;;10.55;1.50;;;;;;;;;;4998844;28;20041;-65
2022/10/06 08:55:03;;;;;;;7.40;1.52;;;;;;;;;;4996111;28;20109;-65
2022/10/06 08:57:41;;;;;;;9.48;1.35;;;;;;;;;;4989650;28;20105;-66
2022/10/06 09:00:12;;;;;;;7.63;1.50;;;;;;;;;;4996332;28;20324;-65
2022/10/06 09:02:42;;;;;;;7.60;1.52;;;;;;;;;;4992080;28;20518;-65
2022/10/06 09:05:11;;;;;;;6.90;1.17;;;;;;;;;;4999473;28;20060;-65
2022/10/06 09:08:01;;;;;;;7.35;1.48;;;;;;;;;;4992553;28;20088;-65
2022/10/06 09:10:40;;;;;;;10.48;1.65;;;;;;;;;;4995871;28;20091;-66
2022/10/06 09:13:10;;;;;;;7.07;1.40;;;;;;;;;;4994604;28;20040;-65
2022/10/06 09:15:49;;;;;;;7.82;1.27;;;;;;;;;;4996441;28;20036;-65
2022/10/06 09:18:18;;;;;;;7.25;1.52;;;;;;;;;;4989654;28;20037;-67
2022/10/06 09:21:01;;;;;;;7.88;1.55;;;;;;;;;;5009293;28;20187;-65
2022/10/06 09:23:47;;;;;;;10.18;1.60;;;;;;;;;;5001902;28;20033;-65
2022/10/06 09:26:17;;;;;;;8.80;2.17;;;;;;;;;;5005251;28;20513;-64
2022/10/06 09:28:45;;;;;;;8.98;1.95;;;;;;;;;;5014522;28;20509;-65
2022/10/06 09:31:17;;;;;;;9.45;1.70;;;;;;;;;;5008754;28;20048;-65
2022/10/06 09:33:44;;;;;;;13.43;1.98;;;;;;;;;;5008439;28;20090;-65
2022/10/06 09:36:11;;;;;;;6.50;1.50;;;;;;;;;;5011634;28;20048;-65
2022/10/06 09:38:54;;;;;;;5.75;1.40;;;;;;;;;;5004097;28;21664;-66
2022/10/06 09:41:25;;;;;;;10.13;1.70;;;;;;;;;;5006871;28;20690;-65
2022/10/06 09:44:05;;;;;;;11.23;2.00;;;;;;;;;;5008461;28;20107;-66
2022/10/06 09:46:40;;;;;;;14.60;2.40;;;;;;;;;;5006852;28;20043;-65
2022/10/06 09:49:17;;;;;;;8.60;1.92;;;;;;;;;;5014058;28;20320;-65
2022/10/06 09:52:02;;;;;;;11.20;1.90;;;;;;;;;;5002931;28;20314;-65
2022/10/06 09:54:30;;;;;;;10.15;1.85;;;;;;;;;;5003080;28;20041;-65
2022/10/06 09:56:58;;;;;;;8.70;1.80;;;;;;;;;;5015504;28;20112;-65
2022/10/06 09:59:35;;;;;;;9.48;2.17;;;;;;;;;;5013931;28;20567;-65
2022/10/06 10:02:03;;;;;;;;;;;;;;;;;;5012014;28;20029;-65
2022/10/06 10:04:32;;;;;;;13.00;2.10;;;;;;;;;;5005722;28;19920;-65
2022/10/06 10:07:18;;;;;;;10.25;1.98;;;;;;;;;;5008421;28;20572;-66
2022/10/06 10:09:45;;;;;;;11.13;2.03;;;;;;;;;;5009682;28;20464;-65
2022/10/06 10:12:33;;;;;;;11.48;2.00;;;;;;;;;;5015243;28;20139;-65
2022/10/06 10:15:17;;;;;;;10.98;2.17;;;;;;;;;;5016449;28;20057;-65
2022/10/06 10:17:51;;;;;;;11.45;2.17;;;;;;;;;;5009930;28;20438;-66
2022/10/06 10:20:38;;;;;;;10.35;2.05;;;;;;;;;;5003834;28;20556;-66
2022/10/06 10:23:23;;;;;;;7.97;1.85;;;;;;;;;;5004965;28;20073;-66
2022/10/06 10:26:01;;;;;;;11.88;2.47;;;;;;;;;;5005962;28;20036;-67
2022/10/06 10:28:49;;;;;;;11.32;2.45;;;;;;;;;;5005673;28;20032;-65
2022/10/06 10:31:24;;;;;;;11.30;2.15;;;;;;;;;;5008187;28;20379;-66
2022/10/06 10:34:30;;;;;;;9.40;1.90;;;;;;;;;;5009264;28;20037;-66
2022/10/06 10:37:04;;;;;;;10.73;1.95;;;;;;;;;;4942104;28;20616;-66
2022/10/06 10:39:35;;;;;;;13.27;2.13;;;;;;;;;;4961149;28;20279;-66
2022/10/06 10:42:05;;;;;;;9.90;2.10;;;;;;;;;;4963643;28;20729;-66
2022/10/06 10:44:34;;;;;;;13.85;2.22;;;;;;;;;;4962283;28;20030;-66
2022/10/06 10:47:20;;;;;;;9.75;1.65;;;;;;;;;;4961845;28;20037;-66
2022/10/06 10:49:53;;;;;;;9.25;1.90;;;;;;;;;;4963045;28;20066;-65
2022/10/06 10:52:20;;;;;;;12.82;2.30;;;;;;;;;;4958933;28;20663;-65
2022/10/06 10:55:05;;;;;;;8.43;2.00;;;;;;;;;;4965460;28;20049;-66
2022/10/06 10:57:36;;;;;;;10.80;2.22;;;;;;;;;;4961811;28;20033;-66
2022/10/06 11:00:17;;;;;;;10.95;2.38;;;;;;;;;;4963791;28;20031;-65
2022/10/06 11:02:43;;;;;;;9.32;2.10;;;;;;;;;;4964795;28;20121;-66
2022/10/06 11:05:16;;;;;;;10.23;2.30;;;;;;;;;;4964088;28;20402;-66
2022/10/06 11:07:42;;;;;;;7.50;1.90;;;;;;;;;;4982127;28;20124;-65
2022/10/06 11:10:17;;;;;;;10.43;2.35;;;;;;;;;;5010646;28;20038;-65
2022/10/06 11:12:56;;;;;;;10.50;2.40;;;;;;;;;;5006912;28;20329;-65
2022/10/06 11:15:31;;;;;;;10.43;2.35;;;;;;;;;;5003187;28;20026;-65
2022/10/06 11:18:03;;;;;;;11.32;2.42;;;;;;;;;;5007947;28;20518;-66
2022/10/06 11:20:44;;;;;;;11.35;2.50;;;;;;;;;;5001680;28;20080;-66
2022/10/06 11:23:23;;;;;;;14.88;2.47;;;;;;;;;;5004882;28;20137;-66
2022/10/06 11:25:58;;;;;;;12.90;2.63;;;;;;;;;;5004992;28;20422;-66
2022/10/06 11:28:36;;;;;;;9.57;2.50;;;;;;;;;;5003935;28;20035;-66
2022/10/06 11:31:24;;;;;;;10.75;2.20;;;;;;;;;;5014228;28;20492;-66
2022/10/06 11:33:53;;;;;;;13.00;2.80;;;;;;;;;;5011012;28;20029;-66
2022/10/06 11:36:44;;;;;;;11.10;2.50;;;;;;;;;;4984549;28;20073;-66
2022/10/06 11:39:20;;;;;;;13.63;2.70;;;;;;;;;;5008388;28;20443;-65
2022/10/06 11:42:06;;;;;;;10.07;2.08;;;;;;;;;;5008400;28;20451;-65
2022/10/06 11:44:43;;;;;;;16.75;5.72;;;;;;;;;;5003642;28;20037;-65
2022/10/06 11:47:25;;;;;;;19.25;8.32;;;;;;;;;;5006963;28;20041;-65
2022/10/06 11:49:54;;;;;;;33.67;16.75;;;;;;;;;;5009016;28;20057;-66
2022/10/06 11:52:23;;;;;;;32.75;17.25;;;;;;;;;;4990258;28;21100;-65
2022/10/06 11:54:54;;;;;;;26.35;13.05;;;;;;;;;;5009145;28;20034;-66
2022/10/06 11:57:26;;;;;;;22.20;10.75;;;;;;;;;;5007678;28;20033;-66
2022/10/06 11:59:55;;;;;;;17.27;8.25;;;;;;;;;;5011221;28;20476;-66
2022/10/06 12:02:38;;;;;;;15.48;6.28;;;;;;;;;;5009314;28;20396;-65
2022/10/06 12:05:18;;;;;;;12.00;3.65;;;;;;;;;;5011407;28;20534;-66
2022/10/06 12:08:09;;;;;;;10.43;3.20;;;;;;;;;;5014457;28;20021;-67
2022/10/06 12:10:47;;;;;;;10.38;3.28;;;;;;;;;;5007035;28;20034;-64
2022/10/06 12:13:31;;;;;;;13.35;3.33;;;;;;;;;;5019906;28;20032;-64
2022/10/06 12:16:06;;;;;;;12.80;3.58;;;;;;;;;;5006824;28;20029;-66
2022/10/06 12:18:48;;;;;;;10.98;3.08;;;;;;;;;;5010590;28;20555;-66
2022/10/06 12:21:22;;;;;;;9.55;2.88;;;;;;;;;;5014781;28;20084;-67
2022/10/06 12:24:00;;;;;;;11.18;3.15;;;;;;;;;;5011540;28;20040;-64
2022/10/06 12:26:39;;;;;;;10.85;3.40;;;;;;;;;;5003962;28;20462;-64
2022/10/06 12:29:27;;;;;;;10.60;3.30;;;;;;;;;;5015938;28;20041;-64
2022/10/06 12:31:57;;;;;;;11.27;2.67;;;;;;;;;;5011992;28;20439;-65
2022/10/06 12:34:41;;;;;;;11.45;3.30;;;;;;;;;;5014006;28;20632;-64
2022/10/06 12:37:28;;;;;;;9.45;3.30;;;;;;;;;;5015674;28;20074;-66
2022/10/06 12:40:14;;;;;;;12.80;3.17;;;;;;;;;;5010263;28;20384;-66
2022/10/06 12:42:41;;;;;;;12.30;3.20;;;;;;;;;;5005517;28;20021;-64
2022/10/06 12:45:16;;;;;;;12.85;3.10;;;;;;;;;;5009501;28;20383;-66
2022/10/06 12:47:43;;;;;;;9.90;2.90;;;;;;;;;;5000578;28;20034;-65
2022/10/06 12:50:17;;;;;;;10.38;2.80;;;;;;;;;;5012613;28;20350;-65
2022/10/06 12:52:48;;;;;;;11.52;3.00;;;;;;;;;;5009186;28;20021;-65
2022/10/06 12:55:31;;;;;;;14.48;3.30;;;;;;;;;;5010702;28;20127;-65
2022/10/06 12:57:58;;;;;;;10.57;2.95;;;;;;;;;;5009129;28;20037;-66
2022/10/06 13:00:29;;;;;;;9.48;2.78;;;;;;;;;;5005392;28;20062;-65
2022/10/06 13:03:00;;;;;;;12.48;3.17;;;;;;;;;;5011960;28;20024;-66
2022/10/06 13:05:26;;;;;;;12.73;3.13;;;;;;;;;;4992207;28;20120;-65
2022/10/06 13:07:56;;;;;;;14.98;3.30;;;;;;;;;;5011993;28;20033;-64
2022/10/06 13:10:23;;;;;;;14.02;2.75;;;;;;;;;;4990407;28;20391;-64
2022/10/06 13:12:51;;;;;;;12.20;2.83;;;;;;;;;;5006741;28;20044;-65
2022/10/06 13:15:34;;;;;;;10.35;2.97;;;;;;;;;;5013564;28;20044;-65
2022/10/06 13:18:03;;;;;;;10.98;2.95;;;;;;;;;;5011723;28;20326;-65
2022/10/06 13:20:35;;;;;;;13.50;3.20;;;;;;;;;;4987840;28;20518;-65
2022/10/06 13:23:21;;;;;;;12.77;3.35;;;;;;;;;;5013593;28;20467;-64
2022/10/06 13:25:49;;;;;;;11.32;2.75;;;;;;;;;;4987837;28;20129;-64
2022/10/06 13:28:19;;;;;;;13.38;3.20;;;;;;;;;;5011673;28;20471;-66
2022/10/06 13:30:49;;;;;;;12.18;2.50;;;;;;;;;;4992730;28;20037;-65
2022/10/06 13:33:15;;;;;;;11.18;2.55;;;;;;;;;;5011654;28;20029;-65
2022/10/06 13:35:41;;;;;;;12.30;3.05;;;;;;;;;;5004481;28;20246;-65
2022/10/06 13:38:08;;;;;;;10.13;2.33;;;;;;;;;;5006538;28;20021;-65
2022/10/06 13:40:35;;;;;;;9.75;2.13;;;;;;;;;;5004605;28;20029;-65
2022/10/06 13:43:02;;;;;;;10.93;2.13;;;;;;;;;;4993180;28;20036;-65
2022/10/06 13:45:28;;;;;;;12.07;2.47;;;;;;;;;;5004782;28;20021;-67
2022/10/06 13:48:13;;;;;;;10.57;2.53;;;;;;;;;;5014720;28;20110;-64
2022/10/06 13:50:45;;;;;;;10.15;2.50;;;;;;;;;;5015102;28;20051;-65
2022/10/06 13:53:40;;;;;;;10.93;2.45;;;;;;;;;;5013237;28;20020;-65
2022/10/06 13:56:21;;;;;;;11.75;2.25;;;;;;;;;;5013566;28;20437;-65
2022/10/06 13:58:48;;;;;;;10.68;2.20;;;;;;;;;;5006956;28;20018;-66
2022/10/06 14:01:26;;;;;;;10.05;2.13;;;;;;;;;;5004217;28;20029;-66
2022/10/06 14:04:14;;;;;;;10.15;2.42;;;;;;;;;;5006595;28;20033;-65
2022/10/06 14:06:46;;;;;;;8.30;1.85;;;;;;;;;;4988505;28;20021;-65
2022/10/06 14:09:19;;;;;;;10.18;2.05;;;;;;;;;;5005310;28;20381;-65
2022/10/06 14:11:47;;;;;;;11.35;2.28;;;;;;;;;;5005749;28;20222;-66
2022/10/06 14:14:16;;;;;;;11.35;2.22;;;;;;;;;;5008877;28;20037;-65
2022/10/06 14:16:48;;;;;;;8.40;1.92;;;;;;;;;;5004328;28;20605;-65
2022/10/06 14:19:32;;;;;;;12.50;2.10;;;;;;;;;;5010824;28;20120;-66
2022/10/06 14:22:01;;;;;;;8.43;1.90;;;;;;;;;;5003096;28;20029;-66
2022/10/06 14:24:32;;;;;;;9.65;1.70;;;;;;;;;;5008637;28;20042;-66
2022/10/06 14:27:04;;;;;;;7.93;1.65;;;;;;;;;;5005020;28;20362;-66
2022/10/06 14:29:33;;;;;;;9.63;1.98;;;;;;;;;;5004784;28;20033;-66
2022/10/06 14:32:12;;;;;;;10.60;1.90;;;;;;;;;;5008874;28;20022;-66
2022/10/06 14:34:41;;;;;;;8.02;1.98;;;;;;;;;;5000879;28;20361;-63
2022/10/06 14:37:14;;;;;;;7.93;1.70;;;;;;;;;;4999896;28;20048;-64
2022/10/06 14:39:44;;;;;;;8.35;1.73;;;;;;;;;;5003189;28;20021;-64
2022/10/06 14:42:16;;;;;;;10.30;2.05;;;;;;;;;;5010657;28;20031;-64
2022/10/06 14:44:44;;;;;;;7.30;1.92;;;;;;;;;;5002526;28;20470;-64
2022/10/06 14:47:10;;;;;;;9.20;1.98;;;;;;;;;;5004442;28;20033;-64
2022/10/06 14:49:36;;;;;;;9.75;1.73;;;;;;;;;;5003637;28;20372;-64
2022/10/06 14:52:04;;;;;;;10.02;2.20;;;;;;;;;;5002643;28;20037;-65
2022/10/06 14:54:30;;;;;;;8.73;1.90;;;;;;;;;;5000999;28;20437;-64
2022/10/06 14:56:56;;;;;;;10.93;2.47;;;;;;;;;;5002280;28;20029;-64
2022/10/06 14:59:23;;;;;;;9.07;2.00;;;;;;;;;;5000345;28;20589;-64
2022/10/06 15:01:49;;;;;;;9.38;2.13;;;;;;;;;;5003481;28;20171;-64
2022/10/06 15:04:20;;;;;;;10.68;2.40;;;;;;;;;;5006666;28;20035;-64
2022/10/06 15:09:32;;;;;;;9.13;2.35;;;;;;;;;;5005250;28;20946;-65
2022/10/06 15:11:58;;;;;;;7.40;1.60;;;;;;;;;;5008151;28;20029;-66
2022/10/06 15:14:27;;;;;;;9.15;1.92;;;;;;;;;;5002382;28;20067;-65
2022/10/06 15:16:54;;;;;;;10.27;2.00;;;;;;;;;;5003822;28;20116;-65